createdAt,value
2023-05-21T00:02:59.522Z,98.91
2023-05-21T00:08:02.825Z,98.77
2023-05-21T00:13:05.931Z,98.98
2023-05-21T00:18:08.999Z,99.69
2023-05-21T00:23:12.156Z,99.95
2023-05-21T00:28:15.157Z,100.00
2023-05-21T00:33:18.504Z,100.00
2023-05-21T00:38:22.414Z,100.00
2023-05-21T00:43:26.832Z,100.00
2023-05-21T00:48:29.837Z,100.00
2023-05-21T00:53:35.191Z,100.00
2023-05-21T00:58:39.769Z,100.00
2023-05-21T01:03:43.108Z,100.00
2023-05-21T01:08:46.888Z,100.00
2023-05-21T01:13:51.071Z,100.00
2023-05-21T01:18:54.258Z,100.00
2023-05-21T01:23:57.338Z,100.00
2023-05-21T01:29:00.344Z,100.00
2023-05-21T01:34:09.672Z,100.00
2023-05-21T01:39:16.916Z,100.00
2023-05-21T01:44:21.087Z,100.00
2023-05-21T01:49:24.690Z,100.00
2023-05-21T01:54:27.674Z,100.00
2023-05-21T01:59:30.931Z,100.00
2023-05-21T02:04:34.095Z,100.00
2023-05-21T02:09:37.100Z,100.00
2023-05-21T02:14:40.130Z,100.00
2023-05-21T02:19:45.059Z,100.00
2023-05-21T02:24:48.063Z,100.00
2023-05-21T02:29:51.177Z,100.00
2023-05-21T02:34:54.183Z,100.00
2023-05-21T02:39:57.191Z,100.00
2023-05-21T02:45:00.630Z,100.00
2023-05-21T02:50:05.971Z,100.00
2023-05-21T02:55:09.928Z,100.00
2023-05-21T03:00:13.922Z,100.00
2023-05-21T03:05:16.930Z,100.00
2023-05-21T03:10:19.932Z,100.00
2023-05-21T03:15:24.425Z,100.00
2023-05-21T03:20:28.510Z,100.00
2023-05-21T03:25:31.659Z,100.00
2023-05-21T03:30:34.729Z,100.00
2023-05-21T03:35:38.029Z,96.51
2023-05-21T03:40:41.198Z,93.25
2023-05-21T03:45:44.582Z,84.79
2023-05-21T03:50:48.085Z,79.81
2023-05-21T03:55:55.408Z,71.58
2023-05-21T04:00:58.813Z,67.33
2023-05-21T04:06:03.516Z,61.52
2023-05-21T04:11:06.673Z,58.16
2023-05-21T04:16:09.797Z,53.56
2023-05-21T04:21:13.349Z,53.10
2023-05-21T04:26:16.501Z,50.62
2023-05-21T04:31:19.584Z,47.83
2023-05-21T04:36:22.633Z,45.06
2023-05-21T04:41:25.728Z,44.04
2023-05-21T04:46:28.754Z,42.35
2023-05-21T04:51:32.157Z,40.25
2023-05-21T04:56:35.269Z,39.15
2023-05-21T05:01:38.815Z,37.61
2023-05-21T05:06:41.816Z,36.36
2023-05-21T05:11:44.920Z,36.33
2023-05-21T05:16:50.662Z,37.30
2023-05-21T05:21:54.171Z,36.92
2023-05-21T05:26:57.191Z,37.80
2023-05-21T05:32:00.196Z,38.16
2023-05-21T05:37:04.538Z,37.73
2023-05-21T05:42:07.547Z,36.20
2023-05-21T05:47:11.169Z,35.75
2023-05-21T05:52:14.577Z,35.36
2023-05-21T05:57:17.622Z,35.49
2023-05-21T06:02:20.982Z,35.56
2023-05-21T06:07:24.312Z,35.69
2023-05-21T06:12:27.330Z,35.35
2023-05-21T06:17:30.470Z,35.91
2023-05-21T06:22:34.257Z,34.39
2023-05-21T06:27:38.154Z,33.63
2023-05-21T06:32:41.382Z,33.64
2023-05-21T06:37:44.710Z,34.12
2023-05-21T06:42:47.750Z,33.06
2023-05-21T06:47:50.893Z,33.03
2023-05-21T06:52:54.037Z,32.96
2023-05-21T06:57:58.047Z,32.61
2023-05-21T07:03:01.174Z,31.73
2023-05-21T07:08:04.391Z,31.91
2023-05-21T07:13:07.413Z,30.35
2023-05-21T07:18:10.516Z,30.34
2023-05-21T07:23:13.524Z,29.67
2023-05-21T07:28:16.626Z,30.35
2023-05-21T07:33:20.895Z,30.11
2023-05-21T07:38:23.964Z,28.91
2023-05-21T07:43:26.972Z,29.68
2023-05-21T07:48:30.078Z,29.78
2023-05-21T07:53:33.547Z,29.08
2023-05-21T07:58:36.704Z,28.81
2023-05-21T08:03:39.847Z,28.83
2023-05-21T08:08:43.028Z,28.79
2023-05-21T08:13:46.033Z,27.47
2023-05-21T08:18:49.619Z,27.02
2023-05-21T08:23:53.380Z,27.24
2023-05-21T08:28:56.797Z,26.05
2023-05-21T08:33:59.800Z,26.97
2023-05-21T08:39:02.804Z,26.96
2023-05-21T08:44:12.265Z,26.90
2023-05-21T08:49:18.868Z,27.36
2023-05-21T08:54:22.906Z,28.10
2023-05-21T08:59:26.830Z,29.08
2023-05-21T09:04:31.421Z,29.82
2023-05-21T09:09:42.308Z,30.45
2023-05-21T09:14:47.610Z,29.51
2023-05-21T09:20:15.142Z,30.01
2023-05-21T09:25:28.475Z,30.82
2023-05-21T09:30:33.996Z,30.50
2023-05-21T09:35:45.595Z,30.41
2023-05-21T09:40:48.512Z,30.00
2023-05-21T09:45:53.301Z,31.00
2023-05-21T09:51:08.453Z,30.36
2023-05-21T09:56:11.779Z,31.20
2023-05-21T10:01:14.891Z,30.32
2023-05-21T10:06:19.416Z,30.90
2023-05-21T10:11:26.728Z,30.42
2023-05-21T10:16:33.184Z,30.08
2023-05-21T10:21:37.200Z,30.24
2023-05-21T10:26:41.529Z,29.56
2023-05-21T10:31:49.949Z,29.05
2023-05-21T10:36:55.816Z,28.05
2023-05-21T10:42:26.247Z,28.36
2023-05-21T10:47:50.614Z,28.02
2023-05-21T10:53:20.287Z,28.85
2023-05-21T10:58:48.791Z,28.66
2023-05-21T11:03:52.072Z,28.76
2023-05-21T11:08:55.840Z,29.49
2023-05-21T11:13:59.039Z,28.99
2023-05-21T11:19:03.058Z,28.91
2023-05-21T11:24:08.511Z,29.80
2023-05-21T11:29:12.092Z,29.52
2023-05-21T11:34:28.983Z,29.51
2023-05-21T11:39:40.350Z,29.24
2023-05-21T11:44:45.265Z,29.32
2023-05-21T11:49:49.559Z,29.45
2023-05-21T11:54:58.332Z,29.14
2023-05-21T12:00:04.797Z,28.47
2023-05-21T12:05:10.208Z,28.19
2023-05-21T12:10:13.533Z,28.80
2023-05-21T12:15:18.052Z,28.14
2023-05-21T12:20:21.445Z,28.00
2023-05-21T12:25:24.752Z,27.55
2023-05-21T12:30:28.882Z,27.28
2023-05-21T12:35:32.611Z,27.32
2023-05-21T12:40:38.308Z,27.42
2023-05-21T12:45:43.757Z,28.78
2023-05-21T12:50:47.164Z,28.26
2023-05-21T12:55:50.781Z,27.53
2023-05-21T13:00:56.650Z,26.93
2023-05-21T13:06:00.285Z,27.24
2023-05-21T13:11:04.525Z,27.57
2023-05-21T13:16:08.234Z,27.74
2023-05-21T13:21:11.285Z,27.31
2023-05-21T13:26:14.452Z,27.26
2023-05-21T13:31:17.770Z,28.41
2023-05-21T13:36:20.878Z,28.42
2023-05-21T13:41:23.988Z,28.34
2023-05-21T13:46:27.353Z,28.18
2023-05-21T13:51:38.567Z,28.74
2023-05-21T13:56:42.471Z,28.92
2023-05-21T14:01:45.856Z,28.78
2023-05-21T14:06:48.949Z,27.87
2023-05-21T14:11:52.013Z,28.20
2023-05-21T14:16:55.213Z,28.19
2023-05-21T14:22:00.141Z,28.46
2023-05-21T14:27:03.677Z,27.89
2023-05-21T14:32:07.878Z,27.64
2023-05-21T14:37:10.981Z,28.54
2023-05-21T14:42:14.399Z,28.20
2023-05-21T14:47:17.403Z,27.57
2023-05-21T14:52:20.621Z,27.21
2023-05-21T14:57:23.623Z,27.44
2023-05-21T15:02:26.977Z,27.64
2023-05-21T15:07:30.249Z,27.15
2023-05-21T15:12:33.248Z,27.38
2023-05-21T15:17:36.500Z,27.35
2023-05-21T15:22:39.889Z,26.99
2023-05-21T15:27:42.770Z,27.82
2023-05-21T15:32:45.891Z,27.90
2023-05-21T15:37:49.001Z,28.10
2023-05-21T15:42:52.013Z,27.33
2023-05-21T15:47:55.051Z,27.23
2023-05-21T15:52:58.231Z,27.07
2023-05-21T15:58:04.039Z,27.25
2023-05-21T16:03:07.274Z,26.96
2023-05-21T16:08:12.363Z,26.96
2023-05-21T16:13:15.478Z,27.01
2023-05-21T16:18:18.586Z,27.66
2023-05-21T16:23:21.592Z,28.35
2023-05-21T16:28:27.280Z,28.32
2023-05-21T16:33:30.881Z,27.95
2023-05-21T16:38:33.996Z,28.20
2023-05-21T16:43:37.529Z,28.45
2023-05-21T16:48:42.162Z,29.15
2023-05-21T16:53:45.369Z,29.69
2023-05-21T16:58:48.475Z,30.41
2023-05-21T17:03:51.845Z,31.12
2023-05-21T17:08:55.015Z,31.43
2023-05-21T17:13:58.631Z,32.40
2023-05-21T17:19:01.661Z,33.01
2023-05-21T17:24:05.241Z,33.39
2023-05-21T17:29:08.260Z,33.98
2023-05-21T17:34:12.203Z,34.29
2023-05-21T17:39:15.131Z,34.98
2023-05-21T17:44:19.220Z,35.26
2023-05-21T17:49:22.674Z,35.52
2023-05-21T17:54:26.155Z,35.77
2023-05-21T17:59:29.268Z,36.18
2023-05-21T18:04:32.288Z,36.39
2023-05-21T18:09:35.479Z,36.69
2023-05-21T18:14:38.587Z,37.25
2023-05-21T18:19:41.601Z,37.52
2023-05-21T18:24:44.704Z,38.07
2023-05-21T18:29:49.212Z,38.61
2023-05-21T18:34:52.597Z,38.99
2023-05-21T18:39:55.664Z,39.55
2023-05-21T18:45:05.639Z,39.99
2023-05-21T18:50:11.284Z,40.41
2023-05-21T18:55:14.974Z,40.82
2023-05-21T19:00:18.833Z,41.03
2023-05-21T19:05:22.358Z,41.38
2023-05-21T19:10:25.593Z,41.67
2023-05-21T19:15:28.600Z,42.09
2023-05-21T19:20:31.914Z,42.71
2023-05-21T19:25:35.002Z,43.27
2023-05-21T19:30:38.474Z,43.79
2023-05-21T19:35:43.384Z,44.24
2023-05-21T19:40:46.722Z,44.88
2023-05-21T19:45:49.961Z,45.90
2023-05-21T19:50:53.129Z,46.02
2023-05-21T19:55:56.851Z,46.33
2023-05-21T20:01:00.380Z,47.03
2023-05-21T20:06:04.000Z,47.66
2023-05-21T20:11:07.052Z,48.19
2023-05-21T20:16:10.738Z,48.72
2023-05-21T20:21:17.963Z,49.87
2023-05-21T20:26:22.053Z,50.86
2023-05-21T20:31:25.714Z,51.10
2023-05-21T20:36:30.748Z,51.95
2023-05-21T20:41:38.054Z,52.65
2023-05-21T20:46:41.159Z,53.29
2023-05-21T20:51:44.668Z,53.89
2023-05-21T20:56:50.956Z,54.35
2023-05-21T21:01:54.204Z,55.16
2023-05-21T21:06:57.367Z,56.15
2023-05-21T21:12:06.107Z,56.87
2023-05-21T21:17:14.902Z,57.95
2023-05-21T21:22:18.623Z,59.13
2023-05-21T21:27:21.683Z,60.73
2023-05-21T21:32:25.932Z,62.63
2023-05-21T21:37:29.760Z,64.10
2023-05-21T21:42:32.962Z,65.85
2023-05-21T21:47:36.005Z,65.61
2023-05-21T21:52:40.324Z,65.50
2023-05-21T21:57:43.413Z,65.80
2023-05-21T22:02:46.849Z,66.41
2023-05-21T22:07:51.654Z,66.24
2023-05-21T22:12:54.821Z,67.10
2023-05-21T22:17:58.916Z,67.72
2023-05-21T22:23:01.931Z,67.65
2023-05-21T22:28:05.550Z,67.32
2023-05-21T22:33:08.611Z,68.25
2023-05-21T22:38:11.604Z,69.10
2023-05-21T22:43:14.680Z,69.10
2023-05-21T22:48:18.502Z,69.46
2023-05-21T22:53:21.448Z,70.65
2023-05-21T22:58:24.618Z,71.49
2023-05-21T23:09:25.839Z,71.40
2023-05-21T23:14:28.930Z,72.27
2023-05-21T23:19:33.067Z,72.73
2023-05-21T23:24:36.583Z,73.09
2023-05-21T23:29:39.734Z,74.03
2023-05-21T23:34:43.105Z,74.36
2023-05-21T23:39:49.853Z,75.16
2023-05-21T23:44:53.110Z,76.06
2023-05-21T23:49:56.224Z,77.00
2023-05-21T23:54:59.360Z,77.80
